Time;durP1;ratioP1;P1;durP2;ratioP2;P2;SDS_P1;SDS_P2;PMS_P1;PMS_P2;Temp;Humidity;BMP_temperature;BMP_pressure;BME280_temperature;BME280_humidity;BME280_pressure;Samples;Min_cycle;Max_cycle;Signal;HPM_P1;HPM_P2
2023/02/13 05:07:55;;;;;;;9.10;5.93;;;-0.30;99.90;;;;;;4991993;28;20219;-62
2023/02/13 05:10:21;;;;;;;9.07;5.67;;;-0.20;99.90;;;;;;4994327;28;20170;-65
2023/02/13 05:12:47;;;;;;;9.07;6.10;;;-0.20;99.90;;;;;;4994190;28;20526;-65
2023/02/13 05:15:12;;;;;;;6.85;5.95;;;-0.30;99.90;;;;;;4994248;28;20748;-65
2023/02/13 05:17:38;;;;;;;9.43;6.40;;;-0.30;99.90;;;;;;4994334;28;20252;-65
2023/02/13 05:20:05;;;;;;;9.73;5.87;;;-0.30;99.90;;;;;;4994473;28;20167;-64
2023/02/13 05:25:15;;;;;;;17.48;7.80;;;-0.30;99.90;;;;;;4994528;28;20192;-65
2023/02/13 05:27:40;;;;;;;6.97;4.93;;;-0.30;99.90;;;;;;4994209;28;20573;-64
2023/02/13 05:30:06;;;;;;;7.70;5.27;;;-0.30;99.90;;;;;;4994166;28;20176;-64
2023/02/13 05:32:32;;;;;;;10.50;6.75;;;-0.30;99.90;;;;;;4994223;28;20180;-65
2023/02/13 05:34:58;;;;;;;9.93;6.93;;;-0.40;99.90;;;;;;4992802;28;20184;-63
2023/02/13 05:37:23;;;;;;;10.60;7.33;;;-0.40;99.90;;;;;;4993997;28;20175;-65
2023/02/13 05:39:49;;;;;;;7.97;5.67;;;-0.40;99.90;;;;;;4994153;28;20507;-63
2023/02/13 05:42:14;;;;;;;12.27;7.87;;;-0.40;99.90;;;;;;4993919;28;20207;-62
2023/02/13 05:44:40;;;;;;;10.30;7.30;;;-0.40;99.90;;;;;;4993815;28;20202;-63
2023/02/13 05:47:05;;;;;;;12.43;6.97;;;-0.50;99.90;;;;;;4994099;28;20529;-66
2023/02/13 05:49:31;;;;;;;9.23;6.20;;;-0.50;99.90;;;;;;4992449;28;20202;-64
2023/02/13 05:51:56;;;;;;;12.00;5.80;;;-0.50;99.90;;;;;;4993531;28;20291;-62
2023/02/13 05:54:22;;;;;;;10.97;5.27;;;-0.60;99.90;;;;;;4993584;28;20695;-65
2023/02/13 05:56:48;;;;;;;7.83;5.13;;;-0.50;99.90;;;;;;4993813;28;20210;-65
2023/02/13 05:59:13;;;;;;;8.60;7.30;;;-0.50;99.90;;;;;;4993879;28;20167;-64
2023/02/13 06:01:39;;;;;;;14.50;6.50;;;-0.60;99.90;;;;;;4993921;28;20183;-63
2023/02/13 06:04:05;;;;;;;14.17;6.73;;;-0.60;99.90;;;;;;4993299;28;20431;-71
2023/02/13 06:06:31;;;;;;;7.50;6.17;;;-0.60;99.90;;;;;;4993549;28;20526;-64
2023/02/13 06:08:56;;;;;;;13.43;6.97;;;-0.60;99.90;;;;;;4993624;28;20211;-65
2023/02/13 06:11:22;;;;;;;11.63;7.57;;;-0.60;99.90;;;;;;4992460;28;20178;-63
2023/02/13 06:13:48;;;;;;;9.17;6.27;;;-0.60;99.90;;;;;;4993271;28;20184;-64
2023/02/13 06:16:13;;;;;;;7.30;6.60;;;-0.60;99.90;;;;;;4993953;28;20531;-63
2023/02/13 06:18:39;;;;;;;9.00;6.67;;;-0.60;99.90;;;;;;4992064;28;20215;-65
2023/02/13 06:21:06;;;;;;;12.80;6.40;;;-0.60;99.90;;;;;;4993553;28;20417;-63
2023/02/13 06:23:32;;;;;;;9.32;6.35;;;-0.60;99.90;;;;;;4992954;28;20528;-65
2023/02/13 06:26:05;;;;;;;7.10;4.63;;;-0.60;99.90;;;;;;4993687;28;20179;-61
2023/02/13 06:28:31;;;;;;;11.50;7.22;;;-0.60;99.90;;;;;;4980431;28;20542;-65
2023/02/13 06:30:56;;;;;;;13.00;7.35;;;-0.70;99.90;;;;;;4993432;28;20175;-63
2023/02/13 06:33:22;;;;;;;10.00;7.53;;;-0.70;99.90;;;;;;4990022;28;20198;-63
2023/02/13 06:35:48;;;;;;;12.37;7.97;;;-0.70;99.90;;;;;;4993149;28;20250;-64
2023/02/13 06:38:13;;;;;;;8.60;6.13;;;-0.60;99.90;;;;;;4984477;28;20209;-63
2023/02/13 06:40:39;;;;;;;11.93;6.93;;;-0.70;99.90;;;;;;4974223;28;20183;-62
2023/02/13 06:43:05;;;;;;;8.10;6.47;;;-0.70;99.90;;;;;;4986239;28;20187;-61
2023/02/13 06:45:30;;;;;;;7.50;5.70;;;-0.70;99.90;;;;;;4993171;28;20195;-62
2023/02/13 06:47:56;;;;;;;8.20;5.20;;;-0.70;99.90;;;;;;4993200;28;20196;-61
2023/02/13 06:50:22;;;;;;;7.73;5.30;;;-0.70;99.90;;;;;;4992587;28;20175;-64
2023/02/13 06:52:49;;;;;;;8.57;6.30;;;-0.60;99.90;;;;;;4995073;28;20187;-62
2023/02/13 06:55:15;;;;;;;11.15;8.55;;;-0.60;99.90;;;;;;4996451;28;20220;-63
2023/02/13 06:57:42;;;;;;;13.95;7.35;;;-0.60;99.90;;;;;;4996591;28;20192;-61
2023/02/13 07:00:12;;;;;;;15.43;6.50;;;-0.60;99.90;;;;;;4996616;28;20197;-62
2023/02/13 07:02:41;;;;;;;13.25;8.30;;;-0.60;99.90;;;;;;4996378;28;20218;-61
2023/02/13 07:05:08;;;;;;;17.83;7.20;;;-0.60;99.90;;;;;;4996083;28;20196;-61
2023/02/13 07:07:35;;;;;;;7.72;5.70;;;-0.60;99.90;;;;;;4996366;28;20286;-62
2023/02/13 07:10:01;;;;;;;18.73;8.43;;;-0.50;99.90;;;;;;4996197;28;20564;-62
2023/02/13 07:12:26;;;;;;;12.90;8.07;;;-0.40;99.90;;;;;;4996032;28;20175;-63
2023/02/13 07:14:52;;;;;;;8.25;6.50;;;-0.30;99.90;;;;;;4995150;28;20857;-61
2023/02/13 07:17:18;;;;;;;12.73;7.60;;;-0.20;99.90;;;;;;4996001;28;20169;-61
2023/02/13 07:19:43;;;;;;;17.93;7.23;;;-0.10;99.90;;;;;;4995700;28;20218;-60
2023/02/13 07:22:09;;;;;;;10.87;6.40;;;0.10;99.90;;;;;;4994916;28;20225;-62
2023/02/13 07:24:37;;;;;;;15.17;8.10;;;0.20;99.90;;;;;;4995337;28;20198;-62
2023/02/13 07:27:03;;;;;;;9.10;7.85;;;0.30;99.90;;;;;;4995204;28;20219;-62
2023/02/13 07:29:29;;;;;;;19.38;8.80;;;0.40;99.90;;;;;;4995273;28;20198;-62
2023/02/13 07:31:54;;;;;;;19.17;9.13;;;0.40;99.90;;;;;;4994999;28;20191;-62
2023/02/13 07:34:21;;;;;;;11.77;9.17;;;0.50;99.90;;;;;;4995493;28;20836;-61
2023/02/13 07:36:46;;;;;;;9.00;7.90;;;0.60;99.90;;;;;;4996126;28;20226;-62
2023/02/13 07:39:12;;;;;;;13.90;8.77;;;0.70;99.90;;;;;;4995773;28;20171;-63
2023/02/13 07:41:37;;;;;;;11.73;7.77;;;0.80;99.90;;;;;;4996491;28;20171;-62
2023/02/13 07:44:03;;;;;;;10.87;9.17;;;1.10;99.90;;;;;;4995772;28;20195;-62
2023/02/13 07:46:29;;;;;;;17.70;8.83;;;1.30;99.90;;;;;;4996419;28;20238;-62
2023/02/13 07:48:55;;;;;;;17.70;10.57;;;1.50;99.90;;;;;;4996359;28;20199;-63
2023/02/13 07:51:24;;;;;;;16.58;12.77;;;1.70;99.90;;;;;;4995999;28;20179;-63
2023/02/13 07:53:50;;;;;;;19.88;11.93;;;2.00;99.90;;;;;;4995296;28;20187;-63
2023/02/13 07:56:16;;;;;;;18.23;10.68;;;2.20;99.90;;;;;;4996126;28;20538;-63
2023/02/13 07:58:43;;;;;;;22.92;15.30;;;2.60;99.90;;;;;;4995786;28;20170;-64
2023/02/13 08:01:11;;;;;;;22.35;15.02;;;3.30;99.90;;;;;;4995828;28;20549;-62
2023/02/13 08:03:37;;;;;;;26.25;16.38;;;4.10;99.90;;;;;;4994787;28;20585;-64
2023/02/13 08:06:04;;;;;;;26.95;15.15;;;5.00;99.90;;;;;;4995274;28;20191;-62
2023/02/13 08:08:29;;;;;;;14.73;10.15;;;5.80;99.90;;;;;;4995599;28;20199;-64
2023/02/13 08:13:41;;;;;;;9.53;7.83;;;7.10;99.90;;;;;;4995147;28;20708;-64
2023/02/13 08:16:07;;;;;;;14.43;10.07;;;7.70;99.90;;;;;;4995405;28;20440;-65
2023/02/13 08:18:32;;;;;;;12.87;9.43;;;8.30;99.90;;;;;;4995098;28;20459;-64
2023/02/13 08:21:00;;;;;;;10.53;8.43;;;8.80;99.90;;;;;;4995399;28;20179;-62
2023/02/13 08:23:25;;;;;;;12.37;8.97;;;9.20;99.90;;;;;;4994752;28;20195;-62
2023/02/13 08:25:51;;;;;;;14.27;10.17;;;9.70;99.90;;;;;;4994940;28;20454;-61
2023/02/13 08:28:16;;;;;;;13.27;8.63;;;10.20;99.90;;;;;;4994625;28;20209;-61
2023/02/13 08:30:42;;;;;;;14.93;8.70;;;10.90;99.90;;;;;;4995020;28;20172;-61
2023/02/13 08:33:08;;;;;;;13.13;8.40;;;11.70;99.90;;;;;;4994425;28;20179;-62
2023/02/13 08:35:33;;;;;;;12.90;8.60;;;12.20;99.90;;;;;;4994990;28;20287;-63
2023/02/13 08:38:03;;;;;;;9.30;8.30;;;12.70;99.90;;;;;;4994444;28;20666;-64
2023/02/13 08:40:30;;;;;;;11.73;7.90;;;13.10;99.50;;;;;;4994751;28;20178;-61
2023/02/13 08:43:00;;;;;;;11.60;8.30;;;13.70;98.00;;;;;;4994452;28;20453;-63
2023/02/13 08:45:25;;;;;;;7.60;6.53;;;14.20;95.90;;;;;;4994469;28;20515;-63
2023/02/13 08:47:56;;;;;;;8.10;6.80;;;14.60;93.80;;;;;;4994651;28;20454;-62
2023/02/13 08:50:21;;;;;;;7.57;5.93;;;14.80;92.40;;;;;;4995080;28;20221;-64
2023/02/13 08:52:47;;;;;;;9.93;7.50;;;14.80;91.90;;;;;;4994278;28;20424;-63
2023/02/13 08:55:12;;;;;;;11.50;7.43;;;14.70;91.20;;;;;;4994548;28;20185;-64
2023/02/13 08:57:38;;;;;;;7.43;6.70;;;14.90;90.80;;;;;;4993770;28;20184;-62
2023/02/13 09:00:04;;;;;;;9.20;6.77;;;15.20;91.10;;;;;;4993750;28;20598;-62
2023/02/13 09:02:30;;;;;;;8.90;7.43;;;15.50;90.30;;;;;;4994101;28;20246;-62
2023/02/13 09:04:56;;;;;;;7.70;6.37;;;15.90;89.70;;;;;;4993469;28;20405;-62
2023/02/13 09:07:21;;;;;;;8.90;7.13;;;16.40;89.30;;;;;;4993669;28;20664;-64
2023/02/13 09:09:47;;;;;;;11.83;6.40;;;17.00;85.20;;;;;;4993734;28;20634;-63
2023/02/13 09:12:12;;;;;;;9.60;8.63;;;17.50;85.40;;;;;;4993671;28;20213;-62
2023/02/13 09:14:38;;;;;;;7.87;6.73;;;17.90;82.80;;;;;;4992984;28;20499;-65
2023/02/13 09:17:04;;;;;;;9.00;7.13;;;18.20;82.10;;;;;;4994048;28;20175;-62
2023/02/13 09:19:29;;;;;;;9.93;6.77;;;18.40;79.90;;;;;;4992320;28;20183;-66
2023/02/13 09:21:55;;;;;;;7.30;6.60;;;18.10;78.60;;;;;;4993398;28;20219;-64
2023/02/13 09:24:21;;;;;;;8.40;7.00;;;17.90;79.80;;;;;;4993203;28;20686;-62
2023/02/13 09:26:46;;;;;;;9.63;7.80;;;17.80;79.10;;;;;;4991748;28;20270;-63
2023/02/13 09:29:12;;;;;;;6.63;6.00;;;17.70;79.80;;;;;;4993393;28;20231;-63
2023/02/13 09:31:37;;;;;;;9.90;7.30;;;17.90;81.00;;;;;;4993514;28;20179;-62
2023/02/13 09:34:03;;;;;;;8.13;7.33;;;18.30;78.60;;;;;;4992997;28;20203;-63
2023/02/13 09:36:29;;;;;;;9.07;7.17;;;18.30;77.80;;;;;;4993485;28;20684;-65
2023/02/13 09:38:56;;;;;;;11.47;8.37;;;17.90;78.00;;;;;;4993385;28;20183;-61
2023/02/13 09:41:41;;;;;;;6.40;5.80;;;17.70;79.30;;;;;;4993025;28;20641;-64
2023/02/13 09:44:36;;;;;;;7.90;6.10;;;17.90;78.20;;;;;;4992560;28;20879;-64
2023/02/13 09:47:04;;;;;;;8.07;7.10;;;18.40;77.80;;;;;;4992792;28;20499;-65
2023/02/13 09:49:32;;;;;;;9.37;6.63;;;18.70;76.70;;;;;;4992906;28;20471;-65
2023/02/13 09:51:58;;;;;;;14.10;8.07;;;18.70;77.30;;;;;;4993501;28;20390;-64
2023/02/13 09:54:25;;;;;;;7.20;5.90;;;18.50;76.00;;;;;;4992671;28;20435;-63
2023/02/13 09:56:53;;;;;;;7.97;6.90;;;18.30;77.80;;;;;;4992828;28;20344;-62
2023/02/13 09:59:56;;;;;;;7.47;6.70;;;18.40;76.60;;;;;;4991973;28;20417;-63
2023/02/13 10:02:27;;;;;;;7.50;6.70;;;18.30;77.50;;;;;;4993153;28;20396;-62
2023/02/13 10:05:21;;;;;;;7.87;6.30;;;18.30;76.80;;;;;;4992758;28;20414;-64
2023/02/13 10:08:05;;;;;;;7.50;6.53;;;18.00;77.10;;;;;;4992967;28;20442;-63
2023/02/13 10:10:42;;;;;;;8.00;6.60;;;17.90;78.00;;;;;;4992538;28;20467;-62
2023/02/13 10:13:26;;;;;;;7.37;6.57;;;17.90;77.70;;;;;;4992911;28;20477;-62
2023/02/13 10:16:13;;;;;;;12.20;6.97;;;18.20;77.50;;;;;;4993169;28;20485;-63
2023/02/13 10:18:45;;;;;;;10.23;7.87;;;18.50;76.20;;;;;;4992953;28;20415;-65
2023/02/13 10:21:12;;;;;;;12.00;6.97;;;18.40;75.70;;;;;;4992920;28;20407;-65
2023/02/13 10:23:49;;;;;;;7.87;6.27;;;18.20;76.60;;;;;;4992070;28;20431;-66
2023/02/13 10:26:26;;;;;;;7.60;6.17;;;18.00;77.90;;;;;;4992934;28;20456;-66
2023/02/13 10:31:49;;;;;;;6.97;5.80;;;17.80;78.00;;;;;;4996397;28;20413;-65
2023/02/13 10:34:16;;;;;;;7.50;6.50;;;17.50;78.40;;;;;;4995814;28;20413;-64
2023/02/13 10:36:46;;;;;;;7.80;6.70;;;17.20;78.90;;;;;;4996525;28;20388;-65
2023/02/13 10:39:23;;;;;;;7.93;5.63;;;17.10;79.10;;;;;;4996196;28;20410;-67
2023/02/13 10:42:21;;;;;;;6.67;5.73;;;17.10;79.90;;;;;;4996127;28;20414;-66
2023/02/13 10:45:24;;;;;;;8.53;6.30;;;17.20;79.10;;;;;;4995640;28;20505;-66
2023/02/13 10:48:16;;;;;;;6.13;5.20;;;17.20;78.80;;;;;;4989683;28;20434;-67
2023/02/13 10:51:28;;;;;;;5.63;5.10;;;17.10;79.40;;;;;;4995236;28;20746;-65
2023/02/13 10:53:54;;;;;;;8.77;5.60;;;17.20;78.90;;;;;;4993768;28;20450;-65
2023/02/13 10:56:37;;;;;;;8.77;6.33;;;17.40;78.20;;;;;;4996167;28;20410;-67
2023/02/13 10:59:51;;;;;;;7.47;5.47;;;17.10;78.30;;;;;;4996404;28;20648;-66
2023/02/13 11:02:28;;;;;;;5.70;5.10;;;16.70;79.60;;;;;;4977780;28;20462;-65
2023/02/13 11:05:01;;;;;;;16.30;5.40;;;16.50;79.90;;;;;;4993498;28;20964;-66
2023/02/13 11:07:29;;;;;;;9.10;6.10;;;16.70;80.00;;;;;;4993765;28;20515;-66
2023/02/13 11:10:00;;;;;;;7.20;5.20;;;16.80;80.60;;;;;;4993531;28;20544;-66
2023/02/13 11:12:31;;;;;;;7.03;5.70;;;16.60;80.30;;;;;;4993971;28;20412;-65
2023/02/13 11:15:03;;;;;;;6.97;6.10;;;16.50;80.20;;;;;;4993598;28;20482;-66
2023/02/13 11:17:35;;;;;;;7.37;5.73;;;16.40;80.30;;;;;;4994413;28;20394;-65
2023/02/13 11:20:05;;;;;;;7.53;6.50;;;16.10;80.30;;;;;;4996271;28;20445;-65
2023/02/13 11:22:34;;;;;;;7.20;5.90;;;16.00;81.30;;;;;;4996287;28;20449;-65
2023/02/13 11:25:05;;;;;;;8.80;5.60;;;15.80;81.50;;;;;;4995667;28;20506;-65
2023/02/13 11:27:37;;;;;;;9.47;6.10;;;15.70;81.80;;;;;;4996207;28;20414;-66
2023/02/13 11:30:27;;;;;;;7.67;5.80;;;15.10;82.10;;;;;;4995791;28;20486;-64
2023/02/13 11:33:16;;;;;;;8.37;6.10;;;14.50;83.50;;;;;;4991221;28;20398;-65
2023/02/13 11:35:42;;;;;;;7.10;6.20;;;13.60;86.20;;;;;;4976617;28;20409;-64
2023/02/13 11:38:13;;;;;;;8.37;6.07;;;12.80;89.00;;;;;;4976205;28;20405;-68
2023/02/13 11:40:40;;;;;;;9.87;6.73;;;12.20;90.00;;;;;;4976646;28;20508;-65
2023/02/13 11:43:07;;;;;;;7.23;6.03;;;11.90;90.40;;;;;;4976289;28;20442;-64
2023/02/13 11:45:34;;;;;;;9.10;6.50;;;11.50;91.10;;;;;;4985220;28;20420;-66
2023/02/13 11:47:59;;;;;;;7.87;6.50;;;11.30;91.70;;;;;;4995505;28;20796;-65
2023/02/13 11:50:33;;;;;;;7.60;5.57;;;10.90;92.50;;;;;;4995875;28;20416;-65
2023/02/13 11:53:22;;;;;;;8.37;5.90;;;10.90;92.70;;;;;;4995547;28;20632;-64
2023/02/13 11:56:05;;;;;;;8.23;7.13;;;10.60;93.40;;;;;;4995681;28;20441;-64
2023/02/13 11:58:32;;;;;;;9.10;6.53;;;10.50;94.00;;;;;;4995852;28;20425;-65
2023/02/13 12:01:24;;;;;;;7.63;6.27;;;10.50;94.20;;;;;;4995379;28;20945;-65
2023/02/13 12:04:02;;;;;;;6.80;6.10;;;10.40;94.20;;;;;;4995210;28;20432;-66
2023/02/13 12:06:28;;;;;;;5.80;5.23;;;10.30;94.50;;;;;;4995469;28;20497;-63
2023/02/13 12:08:54;;;;;;;6.87;5.83;;;10.20;95.00;;;;;;4995560;28;21028;-65
2023/02/13 12:11:34;;;;;;;7.30;5.22;;;10.20;95.10;;;;;;4995567;28;20169;-63
2023/02/13 12:14:00;;;;;;;6.57;5.63;;;10.10;96.10;;;;;;4994770;28;20189;-64
2023/02/13 12:16:36;;;;;;;6.17;5.40;;;10.10;96.60;;;;;;4993912;28;20537;-64
2023/02/13 12:19:06;;;;;;;7.50;5.28;;;10.10;96.60;;;;;;4995342;28;20191;-63
2023/02/13 12:21:41;;;;;;;6.00;3.83;;;10.10;96.10;;;;;;4995242;28;20530;-63
2023/02/13 12:24:34;;;;;;;6.25;4.43;;;10.10;96.70;;;;;;4994704;28;20211;-63
2023/02/13 12:27:46;;;;;;;3.38;3.15;;;10.10;96.20;;;;;;4987656;28;20184;-63
2023/02/13 12:30:32;;;;;;;4.72;3.90;;;10.10;95.30;;;;;;4934853;29;20207;-63
2023/02/13 12:33:49;;;;;;;4.70;4.30;;;10.10;95.30;;;;;;4994920;28;20507;-62
2023/02/13 12:36:23;;;;;;;4.95;3.97;;;10.20;95.40;;;;;;4973090;28;20193;-63
2023/02/13 12:39:33;;;;;;;3.53;3.10;;;10.20;95.30;;;;;;4994675;28;20171;-63
2023/02/13 12:42:04;;;;;;;3.60;3.22;;;10.20;95.00;;;;;;4953359;29;20655;-63
2023/02/13 12:44:32;;;;;;;3.60;2.92;;;10.20;94.80;;;;;;4952892;29;20201;-63
2023/02/13 12:47:14;;;;;;;4.93;3.45;;;10.20;95.00;;;;;;4954030;29;20192;-62
2023/02/13 12:50:10;;;;;;;2.85;2.65;;;10.20;94.90;;;;;;4953359;28;20216;-62
2023/02/13 12:53:01;;;;;;;4.38;3.45;;;10.20;94.60;;;;;;4953946;29;20601;-62
2023/02/13 12:55:45;;;;;;;3.83;3.15;;;10.20;94.60;;;;;;4953970;29;20190;-64
2023/02/13 12:58:36;;;;;;;3.58;3.28;;;10.20;94.60;;;;;;4953731;29;20583;-62
2023/02/13 13:01:01;;;;;;;3.88;3.25;;;10.20;94.90;;;;;;4954778;29;20168;-63
2023/02/13 13:03:57;;;;;;;4.70;4.03;;;10.20;95.30;;;;;;4953298;28;20650;-63
2023/02/13 13:06:39;;;;;;;3.08;2.65;;;10.30;94.60;;;;;;4953335;29;20654;-63
2023/02/13 13:09:42;;;;;;;4.70;3.33;;;10.40;94.80;;;;;;4953361;29;20228;-62
2023/02/13 13:12:38;;;;;;;3.47;3.00;;;10.30;94.90;;;;;;4964994;28;20176;-64
2023/02/13 13:15:25;;;;;;;5.22;3.65;;;10.30;95.10;;;;;;4993814;28;20193;-63
2023/02/13 13:18:32;;;;;;;3.07;2.77;;;10.30;95.30;;;;;;4992748;28;20211;-63
2023/02/13 13:21:03;;;;;;;2.90;2.47;;;10.30;94.90;;;;;;4985877;28;20466;-63
2023/02/13 13:23:52;;;;;;;3.65;2.63;;;10.30;94.80;;;;;;4993699;28;20193;-64
2023/02/13 13:26:35;;;;;;;4.13;3.17;;;10.30;95.00;;;;;;4986254;28;20578;-63
2023/02/13 13:29:11;;;;;;;4.33;3.63;;;10.40;95.10;;;;;;4998117;28;20644;-64
2023/02/13 13:31:37;;;;;;;4.10;3.78;;;10.30;95.10;;;;;;4993776;28;20412;-66
2023/02/13 13:34:09;;;;;;;1.92;1.83;;;10.40;95.20;;;;;;4993551;28;20619;-65
2023/02/13 13:36:46;;;;;;;3.15;2.80;;;10.40;95.10;;;;;;4994020;28;20175;-65
2023/02/13 13:39:33;;;;;;;2.95;2.42;;;10.50;94.90;;;;;;4992804;28;20208;-66
2023/02/13 13:42:16;;;;;;;4.78;3.70;;;10.50;95.10;;;;;;4994096;28;20179;-65
2023/02/13 13:44:50;;;;;;;3.25;2.90;;;10.40;95.10;;;;;;4993482;28;20671;-65
2023/02/13 13:47:57;;;;;;;2.85;2.58;;;10.50;95.30;;;;;;4990564;28;20180;-65
2023/02/13 13:50:26;;;;;;;4.65;3.58;;;10.50;95.30;;;;;;4971846;28;20226;-67
2023/02/13 13:53:18;;;;;;;3.55;3.25;;;10.50;95.00;;;;;;4972525;28;20309;-66
2023/02/13 13:55:55;;;;;;;4.33;3.93;;;10.50;95.30;;;;;;4974397;28;20245;-66
2023/02/13 13:58:37;;;;;;;7.17;3.80;;;10.60;95.70;;;;;;4974582;28;20764;-66
2023/02/13 14:01:28;;;;;;;3.53;3.23;;;10.70;95.50;;;;;;4979519;28;20470;-66
2023/02/13 14:03:59;;;;;;;5.38;3.47;;;10.70;95.50;;;;;;4997326;28;20459;-66
2023/02/13 14:06:51;;;;;;;3.97;3.30;;;10.70;95.50;;;;;;4996350;28;20193;-66
2023/02/13 14:09:26;;;;;;;3.40;3.20;;;10.70;95.70;;;;;;4997649;28;20471;-66
2023/02/13 14:11:53;;;;;;;4.40;2.65;;;10.60;95.50;;;;;;4997771;28;20405;-66
2023/02/13 14:14:27;;;;;;;9.10;3.87;;;10.60;95.50;;;;;;4997100;28;20248;-66
2023/02/13 14:16:55;;;;;;;8.57;3.15;;;10.60;95.70;;;;;;4997396;28;20417;-66
2023/02/13 14:19:36;;;;;;;4.67;3.90;;;10.60;95.70;;;;;;4997520;28;20199;-67
2023/02/13 14:22:35;;;;;;;3.45;2.80;;;10.50;95.60;;;;;;4997484;28;20416;-64
2023/02/13 14:25:04;;;;;;;4.55;3.58;;;10.50;95.60;;;;;;4996986;28;20534;-66
2023/02/13 14:27:33;;;;;;;3.13;2.92;;;10.50;95.50;;;;;;4997450;28;20222;-66
2023/02/13 14:30:05;;;;;;;3.97;3.58;;;10.50;95.60;;;;;;4997106;28;20226;-67
2023/02/13 14:32:40;;;;;;;3.17;2.60;;;10.50;95.40;;;;;;4997233;28;20639;-66
2023/02/13 14:35:19;;;;;;;3.50;3.20;;;10.50;95.40;;;;;;4996810;28;20851;-67
2023/02/13 14:37:56;;;;;;;2.63;2.40;;;10.50;95.20;;;;;;4997083;28;20176;-65
2023/02/13 14:40:21;;;;;;;5.50;4.20;;;10.50;95.20;;;;;;4997156;28;20173;-66
2023/02/13 14:42:56;;;;;;;3.73;3.20;;;10.50;95.20;;;;;;4996749;28;20183;-67
2023/02/13 14:45:28;;;;;;;3.28;3.05;;;10.40;95.40;;;;;;4996870;28;20595;-65
2023/02/13 14:47:56;;;;;;;4.63;3.42;;;10.40;95.50;;;;;;4996878;28;20203;-67
2023/02/13 14:50:49;;;;;;;6.20;3.30;;;10.40;95.50;;;;;;4996764;28;20658;-66
2023/02/13 14:53:25;;;;;;;3.75;3.30;;;10.40;95.70;;;;;;4994809;28;20423;-67
2023/02/13 14:55:57;;;;;;;3.85;3.42;;;10.30;95.90;;;;;;4996570;28;20226;-66
2023/02/13 14:58:29;;;;;;;4.30;3.90;;;10.30;96.00;;;;;;4996854;28;20614;-66
2023/02/13 15:01:13;;;;;;;4.60;4.20;;;10.40;96.10;;;;;;4996815;28;20255;-66
2023/02/13 15:03:53;;;;;;;3.40;3.15;;;10.40;96.20;;;;;;4996033;28;20258;-66
2023/02/13 15:06:32;;;;;;;3.17;2.92;;;10.30;96.10;;;;;;4996484;28;20185;-66
2023/02/13 15:09:00;;;;;;;4.35;3.85;;;10.30;96.30;;;;;;4996605;28;20202;-66
2023/02/13 15:11:41;;;;;;;4.43;4.05;;;10.30;96.40;;;;;;4996661;28;20528;-66
2023/02/13 15:14:19;;;;;;;3.03;2.73;;;10.20;96.60;;;;;;4993972;28;20706;-66
2023/02/13 15:16:49;;;;;;;3.72;2.70;;;10.10;96.80;;;;;;4994881;28;20422;-66
2023/02/13 15:19:17;;;;;;;4.47;3.42;;;10.10;97.10;;;;;;4995296;28;20188;-67
2023/02/13 15:21:52;;;;;;;3.80;3.47;;;10.10;97.10;;;;;;4995517;28;20172;-66
2023/02/13 15:24:21;;;;;;;3.75;3.45;;;10.10;97.20;;;;;;4995415;28;20202;-66
2023/02/13 15:26:58;;;;;;;4.00;3.50;;;10.10;97.30;;;;;;4995620;28;20638;-66
2023/02/13 15:29:24;;;;;;;3.42;3.13;;;10.00;97.60;;;;;;4995524;28;20286;-66
2023/02/13 15:31:49;;;;;;;4.77;3.30;;;9.90;98.50;;;;;;4995880;28;20259;-66
2023/02/13 15:34:24;;;;;;;5.10;3.80;;;9.90;98.80;;;;;;4995579;28;20190;-67
2023/02/13 15:36:51;;;;;;;3.50;3.20;;;9.80;98.90;;;;;;4995861;28;20171;-66
2023/02/13 15:39:21;;;;;;;5.57;3.60;;;9.70;99.10;;;;;;4996203;28;20581;-65
2023/02/13 15:41:57;;;;;;;3.35;3.10;;;9.60;99.60;;;;;;4995758;28;20229;-67
2023/02/13 15:44:30;;;;;;;3.47;3.20;;;9.50;99.80;;;;;;4994986;28;20271;-64
2023/02/13 15:47:05;;;;;;;4.55;3.35;;;9.40;99.80;;;;;;4995162;28;20175;-66
2023/02/13 15:49:37;;;;;;;4.22;3.38;;;9.30;99.90;;;;;;4995585;28;20741;-66
2023/02/13 15:52:33;;;;;;;3.35;2.85;;;9.20;99.90;;;;;;4995037;28;20168;-65
2023/02/13 15:54:59;;;;;;;4.00;3.70;;;9.20;99.90;;;;;;4994769;28;20218;-66
2023/02/13 15:57:26;;;;;;;3.90;3.53;;;9.10;99.90;;;;;;4994846;28;20195;-66
2023/02/13 15:59:54;;;;;;;4.55;3.10;;;9.00;99.90;;;;;;4995154;28;20418;-65
2023/02/13 16:02:42;;;;;;;4.72;4.20;;;8.90;99.90;;;;;;4995868;28;20251;-66
2023/02/13 16:05:11;;;;;;;4.28;3.88;;;8.70;99.90;;;;;;4995420;28;20291;-64
2023/02/13 16:07:52;;;;;;;5.32;3.60;;;8.60;99.90;;;;;;4995380;28;20202;-65
2023/02/13 16:10:32;;;;;;;5.03;3.70;;;8.40;99.90;;;;;;4995432;28;20550;-66
2023/02/13 16:13:01;;;;;;;4.75;3.60;;;8.30;99.90;;;;;;4993822;28;20178;-65
2023/02/13 16:15:30;;;;;;;4.55;4.15;;;8.20;99.90;;;;;;4993747;28;20195;-64
2023/02/13 16:17:57;;;;;;;4.35;3.95;;;8.10;99.90;;;;;;4994550;28;20175;-66
2023/02/13 16:20:26;;;;;;;6.82;4.10;;;8.00;99.90;;;;;;4994813;28;20172;-65
2023/02/13 16:23:15;;;;;;;4.68;3.75;;;7.90;99.90;;;;;;4995048;28;20584;-66
2023/02/13 16:25:41;;;;;;;4.55;4.25;;;7.80;99.90;;;;;;4995140;28;20211;-66
2023/02/13 16:28:22;;;;;;;5.70;4.20;;;7.60;99.90;;;;;;4994737;28;20184;-67
2023/02/13 16:30:54;;;;;;;5.80;3.97;;;7.50;99.90;;;;;;4995184;28;20437;-66
2023/02/13 16:33:23;;;;;;;6.32;5.63;;;7.50;99.90;;;;;;4994782;28;20175;-66
2023/02/13 16:35:54;;;;;;;6.35;4.95;;;7.40;99.90;;;;;;4994808;28;20684;-66
2023/02/13 16:38:26;;;;;;;5.32;3.97;;;7.30;99.90;;;;;;4994958;28;20703;-66
2023/02/13 16:40:53;;;;;;;6.50;4.85;;;7.20;99.90;;;;;;4995088;28;20553;-66
2023/02/13 16:43:44;;;;;;;6.88;4.97;;;7.10;99.90;;;;;;4993004;28;20648;-66
2023/02/13 16:46:22;;;;;;;8.30;5.47;;;6.90;99.90;;;;;;4994599;28;20262;-68
2023/02/13 16:49:18;;;;;;;4.93;4.38;;;6.80;99.90;;;;;;4995048;28;20206;-67
2023/02/13 16:51:58;;;;;;;7.05;4.43;;;6.60;99.90;;;;;;4994336;28;20199;-66
2023/02/13 16:54:29;;;;;;;6.57;4.57;;;6.50;99.90;;;;;;4994279;28;20211;-66
2023/02/13 16:57:12;;;;;;;7.38;4.10;;;6.40;99.90;;;;;;4994622;28;20257;-67
2023/02/13 16:59:46;;;;;;;8.70;4.57;;;6.30;99.90;;;;;;4994778;28;20541;-67
2023/02/13 17:02:19;;;;;;;9.98;6.00;;;6.20;99.90;;;;;;4994082;28;20249;-65
2023/02/13 17:04:52;;;;;;;8.70;4.85;;;6.10;99.90;;;;;;4994112;28;20190;-66
2023/02/13 17:07:21;;;;;;;4.93;4.40;;;6.00;99.90;;;;;;4994511;28;20571;-67
2023/02/13 17:09:53;;;;;;;5.68;4.60;;;5.90;99.90;;;;;;4994657;28;20203;-65
2023/02/13 17:12:19;;;;;;;7.20;3.90;;;5.90;99.90;;;;;;4994133;28;20182;-65
2023/02/13 17:14:45;;;;;;;7.13;4.25;;;5.70;99.90;;;;;;4992577;28;20194;-66
2023/02/13 17:17:17;;;;;;;6.72;4.70;;;5.70;99.90;;;;;;4994280;28;20615;-65
2023/02/13 17:19:43;;;;;;;9.98;6.22;;;5.50;99.90;;;;;;4993946;28;20230;-66
2023/02/13 17:22:21;;;;;;;6.53;4.30;;;5.50;99.90;;;;;;4994505;28;20186;-67
2023/02/13 17:24:46;;;;;;;8.43;5.60;;;5.40;99.90;;;;;;4993920;28;20231;-67
2023/02/13 17:27:13;;;;;;;8.77;5.90;;;5.30;99.90;;;;;;4992574;28;20209;-68
2023/02/13 17:29:39;;;;;;;5.25;3.95;;;5.20;99.90;;;;;;4993689;28;20197;-67
2023/02/13 17:32:04;;;;;;;8.67;5.17;;;5.10;99.90;;;;;;4993929;28;20175;-66
2023/02/13 17:34:30;;;;;;;5.43;4.37;;;5.10;99.90;;;;;;4993399;28;20599;-67
2023/02/13 17:36:56;;;;;;;7.00;5.20;;;5.00;99.90;;;;;;4993672;28;20177;-66
2023/02/13 17:39:21;;;;;;;7.03;5.67;;;5.00;99.90;;;;;;4994122;28;20173;-67
2023/02/13 17:41:47;;;;;;;7.10;4.60;;;4.90;99.90;;;;;;4993990;28;20171;-65
2023/02/13 17:44:13;;;;;;;7.23;5.47;;;4.80;99.90;;;;;;4993378;28;20205;-66
2023/02/13 17:46:38;;;;;;;4.77;4.30;;;4.80;99.90;;;;;;4993838;28;20182;-63
2023/02/13 17:49:04;;;;;;;8.10;5.80;;;4.70;99.90;;;;;;4993581;28;20466;-63
2023/02/13 17:51:30;;;;;;;6.33;5.70;;;4.70;99.90;;;;;;4993685;28;20169;-63
2023/02/13 17:53:56;;;;;;;9.65;5.53;;;4.60;99.90;;;;;;4993108;28;20206;-66
2023/02/13 17:56:22;;;;;;;6.97;5.60;;;4.50;99.90;;;;;;4985348;28;20181;-64
2023/02/13 17:58:47;;;;;;;11.80;5.97;;;4.40;99.90;;;;;;4990455;28;20250;-63
2023/02/13 18:01:13;;;;;;;6.00;5.03;;;4.40;99.90;;;;;;4982495;28;20176;-64
2023/02/13 18:03:39;;;;;;;11.47;6.70;;;4.30;99.90;;;;;;4987067;28;20186;-63
2023/02/13 18:06:05;;;;;;;7.87;4.73;;;4.30;99.90;;;;;;4983149;28;20278;-63
2023/02/13 18:08:31;;;;;;;8.57;7.00;;;4.30;99.90;;;;;;4984304;28;20508;-61
2023/02/13 18:10:56;;;;;;;10.47;7.17;;;4.20;99.90;;;;;;4982598;28;20172;-62
2023/02/13 18:13:22;;;;;;;6.43;5.50;;;4.10;99.90;;;;;;4985693;28;20211;-63
2023/02/13 18:15:48;;;;;;;7.43;5.30;;;4.10;99.90;;;;;;4983107;28;20291;-62
2023/02/13 18:18:15;;;;;;;8.90;4.87;;;4.00;99.90;;;;;;4983150;28;20533;-62
2023/02/13 18:20:41;;;;;;;7.10;5.30;;;3.90;99.90;;;;;;4983006;28;20179;-63
2023/02/13 18:23:08;;;;;;;7.30;4.68;;;3.90;99.90;;;;;;4974992;28;20208;-63
2023/02/13 18:25:34;;;;;;;8.43;5.93;;;3.80;99.90;;;;;;4973940;28;20306;-62
2023/02/13 18:28:00;;;;;;;6.25;5.13;;;3.70;99.90;;;;;;4981218;28;20512;-63
2023/02/13 18:30:26;;;;;;;7.00;5.20;;;3.60;99.90;;;;;;4993411;28;20219;-63